Time;durP1;ratioP1;P1;durP2;ratioP2;P2;SDS_P1;SDS_P2;PMS_P1;PMS_P2;Temp;Humidity;BMP_temperature;BMP_pressure;BME280_temperature;BME280_humidity;BME280_pressure;Samples;Min_cycle;Max_cycle;Signal;HPM_P1;HPM_P2
2021/11/29 00:00:22;;;;;;;11.75;0.90;;;;;;;;;;5056296;28;20060;-71
2021/11/29 00:02:49;;;;;;;6.05;0.80;;;;;;;;;;5055981;28;20409;-71
2021/11/29 00:05:16;;;;;;;5.68;0.65;;;;;;;;;;5056231;28;20043;-71
2021/11/29 00:07:42;;;;;;;8.27;1.05;;;;;;;;;;5056128;28;20035;-71
2021/11/29 00:10:09;;;;;;;1.65;0.60;;;;;;;;;;5056020;28;20021;-70
2021/11/29 00:12:35;;;;;;;8.07;1.02;;;;;;;;;;5056030;28;20040;-71
2021/11/29 00:15:01;;;;;;;5.18;0.98;;;;;;;;;;5055897;28;20079;-71
2021/11/29 00:17:27;;;;;;;5.30;0.85;;;;;;;;;;5056323;28;20053;-70
2021/11/29 00:19:53;;;;;;;6.25;0.98;;;;;;;;;;5056068;28;20021;-70
2021/11/29 00:22:19;;;;;;;6.85;0.80;;;;;;;;;;5038069;28;20017;-70
2021/11/29 00:24:45;;;;;;;13.57;0.88;;;;;;;;;;5055855;28;20040;-71
2021/11/29 00:27:11;;;;;;;6.47;1.05;;;;;;;;;;5072184;28;20489;-72
2021/11/29 00:29:37;;;;;;;6.78;1.00;;;;;;;;;;5075734;28;20055;-72
2021/11/29 00:32:03;;;;;;;8.32;1.00;;;;;;;;;;5075589;28;20081;-71
2021/11/29 00:34:29;;;;;;;6.15;0.82;;;;;;;;;;5075682;28;20023;-72
2021/11/29 00:36:55;;;;;;;3.90;0.75;;;;;;;;;;5075278;28;20028;-72
2021/11/29 00:39:21;;;;;;;6.22;0.82;;;;;;;;;;5075677;28;20024;-74
2021/11/29 00:41:48;;;;;;;5.05;0.90;;;;;;;;;;5075893;28;20031;-72
2021/11/29 00:44:15;;;;;;;14.60;1.00;;;;;;;;;;5075405;28;20033;-73
2021/11/29 00:46:41;;;;;;;2.88;0.75;;;;;;;;;;5075313;28;20028;-73
2021/11/29 00:49:07;;;;;;;6.22;0.70;;;;;;;;;;5057513;28;20021;-74
2021/11/29 00:51:33;;;;;;;6.80;0.60;;;;;;;;;;5075227;28;20029;-72
2021/11/29 00:53:59;;;;;;;2.70;0.70;;;;;;;;;;5057243;28;20078;-73
2021/11/29 00:56:25;;;;;;;6.30;0.82;;;;;;;;;;5075188;28;20424;-73
2021/11/29 00:58:51;;;;;;;6.22;0.90;;;;;;;;;;5075204;28;20056;-74
2021/11/29 01:01:17;;;;;;;2.65;0.80;;;;;;;;;;5074974;28;20021;-74
2021/11/29 01:03:43;;;;;;;4.07;0.73;;;;;;;;;;5075177;28;20067;-75
2021/11/29 01:06:09;;;;;;;6.30;0.90;;;;;;;;;;5073994;28;20020;-74
2021/11/29 01:08:35;;;;;;;3.45;0.70;;;;;;;;;;5076115;28;20036;-76
2021/11/29 01:11:02;;;;;;;7.18;0.88;;;;;;;;;;5076643;28;20021;-76
2021/11/29 01:13:28;;;;;;;4.88;1.00;;;;;;;;;;5076098;28;20061;-78
2021/11/29 01:15:54;;;;;;;4.53;0.80;;;;;;;;;;5075836;28;20096;-77
2021/11/29 01:18:20;;;;;;;4.40;0.85;;;;;;;;;;5058142;28;20024;-77
2021/11/29 01:20:47;;;;;;;3.17;0.60;;;;;;;;;;5075581;28;20022;-77
2021/11/29 01:23:13;;;;;;;3.05;0.65;;;;;;;;;;5057838;28;20078;-76
2021/11/29 01:25:40;;;;;;;2.50;0.80;;;;;;;;;;5075841;28;20059;-75
2021/11/29 01:28:06;;;;;;;7.35;0.60;;;;;;;;;;5075360;28;20103;-76
2021/11/29 01:30:32;;;;;;;2.13;0.60;;;;;;;;;;5075301;28;20021;-76
2021/11/29 01:32:58;;;;;;;3.63;0.50;;;;;;;;;;5074995;28;20032;-75
2021/11/29 01:35:24;;;;;;;5.97;0.73;;;;;;;;;;5074443;28;20387;-75
2021/11/29 01:37:50;;;;;;;2.25;0.60;;;;;;;;;;5074416;28;20036;-75
2021/11/29 01:40:17;;;;;;;1.33;0.40;;;;;;;;;;5074285;28;20024;-74
2021/11/29 01:42:56;;;;;;;2.03;0.55;;;;;;;;;;5074490;28;20020;-73
2021/11/29 01:45:22;;;;;;;3.20;0.60;;;;;;;;;;5074322;28;20043;-73
2021/11/29 01:47:48;;;;;;;3.90;0.60;;;;;;;;;;5074211;28;20495;-73
2021/11/29 01:50:14;;;;;;;1.27;0.50;;;;;;;;;;5074057;28;20021;-72
2021/11/29 01:52:40;;;;;;;3.47;0.60;;;;;;;;;;5074060;28;20032;-76
2021/11/29 01:55:06;;;;;;;5.72;0.55;;;;;;;;;;5073754;28;20029;-75
2021/11/29 01:57:32;;;;;;;3.95;0.70;;;;;;;;;;5073950;28;20446;-75
2021/11/29 01:59:58;;;;;;;1.92;0.60;;;;;;;;;;5073678;28;20032;-76
2021/11/29 02:02:27;;;;;;;3.60;0.45;;;;;;;;;;5074168;28;20055;-74
2021/11/29 02:04:54;;;;;;;2.50;0.60;;;;;;;;;;5056092;28;20028;-75
2021/11/29 02:07:20;;;;;;;4.57;0.65;;;;;;;;;;5052678;28;20029;-74
2021/11/29 02:09:46;;;;;;;3.00;0.60;;;;;;;;;;5070168;28;20430;-74
2021/11/29 02:12:12;;;;;;;3.05;0.50;;;;;;;;;;5073902;28;20028;-74
2021/11/29 02:14:38;;;;;;;2.90;0.77;;;;;;;;;;5055514;28;20056;-75
2021/11/29 02:17:06;;;;;;;1.25;0.52;;;;;;;;;;5055701;28;20021;-75
2021/11/29 02:19:37;;;;;;;5.72;0.55;;;;;;;;;;5055921;28;20036;-75
2021/11/29 02:22:03;;;;;;;2.90;0.73;;;;;;;;;;5056213;28;20070;-75
2021/11/29 02:24:29;;;;;;;0.57;0.50;;;;;;;;;;5073644;28;20086;-75
2021/11/29 02:26:55;;;;;;;1.17;0.50;;;;;;;;;;5073603;28;20403;-74
2021/11/29 02:29:21;;;;;;;4.03;0.57;;;;;;;;;;5073512;28;20021;-75
2021/11/29 02:31:48;;;;;;;2.08;0.60;;;;;;;;;;5055483;28;20087;-75
2021/11/29 02:34:22;;;;;;;2.38;0.57;;;;;;;;;;5065702;28;20025;-74
2021/11/29 02:36:49;;;;;;;7.65;0.50;;;;;;;;;;5073418;28;20059;-74
2021/11/29 02:39:16;;;;;;;2.85;0.50;;;;;;;;;;5073421;28;20075;-74
2021/11/29 02:41:42;;;;;;;2.63;0.50;;;;;;;;;;5073444;28;20027;-73
2021/11/29 02:44:08;;;;;;;2.83;0.80;;;;;;;;;;5073161;28;20507;-72
2021/11/29 02:46:34;;;;;;;2.00;0.70;;;;;;;;;;5055641;28;20353;-72
2021/11/29 02:49:01;;;;;;;4.43;0.55;;;;;;;;;;5073348;28;20020;-73
2021/11/29 02:51:33;;;;;;;1.88;0.60;;;;;;;;;;5073255;28;20013;-72
2021/11/29 02:54:13;;;;;;;2.58;0.60;;;;;;;;;;5073050;28;20028;-72
2021/11/29 02:56:41;;;;;;;0.95;0.60;;;;;;;;;;5073329;28;20471;-72
2021/11/29 02:59:09;;;;;;;2.55;0.70;;;;;;;;;;5055412;28;20029;-72
2021/11/29 03:01:36;;;;;;;0.77;0.40;;;;;;;;;;5073298;28;20055;-72
2021/11/29 03:04:02;;;;;;;2.47;0.45;;;;;;;;;;5073493;28;20398;-71
2021/11/29 03:06:28;;;;;;;1.55;0.57;;;;;;;;;;5073314;28;20035;-70
2021/11/29 03:08:55;;;;;;;2.30;0.55;;;;;;;;;;5073041;28;20013;-71
2021/11/29 03:11:22;;;;;;;2.15;0.50;;;;;;;;;;5072035;28;20032;-69
2021/11/29 03:13:48;;;;;;;4.10;0.68;;;;;;;;;;5055140;28;20053;-70
2021/11/29 03:16:14;;;;;;;2.05;0.60;;;;;;;;;;5073289;28;20066;-71
2021/11/29 03:18:42;;;;;;;4.97;0.70;;;;;;;;;;5073208;28;20020;-71
2021/11/29 03:21:08;;;;;;;2.58;0.60;;;;;;;;;;5073001;28;20017;-71
2021/11/29 03:23:35;;;;;;;2.47;0.50;;;;;;;;;;5073053;28;20021;-71
2021/11/29 03:26:01;;;;;;;4.53;0.57;;;;;;;;;;5054873;28;20106;-72
2021/11/29 03:28:27;;;;;;;2.10;0.60;;;;;;;;;;5074211;28;20021;-73
2021/11/29 03:30:54;;;;;;;5.72;0.50;;;;;;;;;;5076749;28;20021;-72
2021/11/29 03:33:20;;;;;;;2.47;0.52;;;;;;;;;;5076041;28;20047;-72
2021/11/29 03:35:46;;;;;;;5.15;0.70;;;;;;;;;;5077298;28;20031;-72
2021/11/29 03:38:12;;;;;;;2.50;0.50;;;;;;;;;;5077098;28;20029;-71
2021/11/29 03:40:39;;;;;;;2.95;0.60;;;;;;;;;;5077050;28;20024;-72
2021/11/29 03:43:05;;;;;;;2.15;0.57;;;;;;;;;;5076841;28;20025;-72
2021/11/29 03:45:31;;;;;;;9.55;0.60;;;;;;;;;;5058503;28;20119;-69
2021/11/29 03:47:57;;;;;;;6.70;1.00;;;;;;;;;;5076427;28;20021;-71
2021/11/29 03:50:23;;;;;;;9.05;0.80;;;;;;;;;;5076486;28;20073;-71
2021/11/29 03:52:49;;;;;;;11.98;1.10;;;;;;;;;;5058235;28;20064;-71
2021/11/29 03:55:15;;;;;;;12.63;0.80;;;;;;;;;;5085695;28;20482;-70
2021/11/29 03:57:41;;;;;;;7.40;0.88;;;;;;;;;;5096679;28;20031;-70
2021/11/29 04:00:08;;;;;;;3.28;0.63;;;;;;;;;;5076918;28;20025;-71
2021/11/29 04:02:35;;;;;;;7.38;0.80;;;;;;;;;;5058116;28;20086;-69
2021/11/29 04:05:01;;;;;;;8.00;0.82;;;;;;;;;;5076469;28;20025;-69
2021/11/29 04:07:27;;;;;;;5.38;0.70;;;;;;;;;;5076307;28;20033;-71
2021/11/29 04:09:53;;;;;;;9.35;0.73;;;;;;;;;;5076351;28;20020;-71
2021/11/29 04:12:19;;;;;;;4.82;0.68;;;;;;;;;;5058383;28;20051;-69
2021/11/29 04:14:49;;;;;;;9.73;0.80;;;;;;;;;;5057439;28;20504;-70
2021/11/29 04:17:15;;;;;;;6.95;0.82;;;;;;;;;;5076010;28;20028;-70
2021/11/29 04:19:44;;;;;;;5.68;0.70;;;;;;;;;;5075778;28;20024;-71
2021/11/29 04:22:10;;;;;;;5.38;0.90;;;;;;;;;;5075931;28;20017;-71
2021/11/29 04:24:39;;;;;;;25.90;0.98;;;;;;;;;;5076035;28;20020;-71
2021/11/29 04:27:06;;;;;;;4.30;0.50;;;;;;;;;;5075819;28;20063;-70
2021/11/29 04:29:35;;;;;;;7.05;0.70;;;;;;;;;;5075820;28;20021;-71
2021/11/29 04:32:01;;;;;;;3.38;0.90;;;;;;;;;;5054096;28;20120;-71
2021/11/29 04:34:27;;;;;;;7.38;0.98;;;;;;;;;;5054628;28;20120;-70
2021/11/29 04:36:53;;;;;;;6.88;0.90;;;;;;;;;;5055746;28;20029;-69
2021/11/29 04:39:21;;;;;;;10.65;0.80;;;;;;;;;;5055774;28;20040;-71
2021/11/29 04:41:48;;;;;;;5.88;0.80;;;;;;;;;;5055470;28;20048;-71
2021/11/29 04:44:14;;;;;;;5.43;0.82;;;;;;;;;;5055404;28;20067;-70
2021/11/29 04:46:40;;;;;;;6.95;0.50;;;;;;;;;;5055220;28;20025;-71
2021/11/29 04:49:06;;;;;;;5.45;0.70;;;;;;;;;;5055759;28;20021;-70
2021/11/29 04:51:32;;;;;;;3.45;1.00;;;;;;;;;;5055384;28;20131;-70
2021/11/29 04:53:58;;;;;;;3.50;0.50;;;;;;;;;;5055354;28;20480;-71
2021/11/29 04:56:24;;;;;;;2.75;0.65;;;;;;;;;;5037224;28;20032;-70
2021/11/29 04:58:51;;;;;;;1.83;0.63;;;;;;;;;;5059639;28;20033;-69
2021/11/29 05:01:17;;;;;;;5.40;0.70;;;;;;;;;;5075151;28;20059;-70
2021/11/29 05:03:43;;;;;;;1.95;0.68;;;;;;;;;;5075012;28;20025;-69
2021/11/29 05:06:09;;;;;;;8.13;0.70;;;;;;;;;;5075063;28;20480;-70
2021/11/29 05:08:35;;;;;;;4.65;0.70;;;;;;;;;;5057190;28;20024;-70
2021/11/29 05:11:01;;;;;;;8.75;0.80;;;;;;;;;;5075108;28;20361;-70
2021/11/29 05:13:27;;;;;;;4.18;0.60;;;;;;;;;;5074529;28;20044;-71
2021/11/29 05:15:53;;;;;;;3.30;0.80;;;;;;;;;;5074799;28;20017;-69
2021/11/29 05:18:19;;;;;;;5.78;0.63;;;;;;;;;;5074734;28;20320;-70
2021/11/29 05:20:45;;;;;;;7.57;0.75;;;;;;;;;;5074747;28;20407;-70
2021/11/29 05:23:12;;;;;;;4.15;0.60;;;;;;;;;;5057127;28;20035;-70
2021/11/29 05:25:38;;;;;;;5.43;0.60;;;;;;;;;;5074637;28;20059;-69
2021/11/29 05:28:04;;;;;;;6.55;0.60;;;;;;;;;;5074645;28;20028;-70
2021/11/29 05:30:30;;;;;;;2.40;0.65;;;;;;;;;;5056562;28;20064;-71
2021/11/29 05:32:56;;;;;;;2.33;0.57;;;;;;;;;;5074462;28;20060;-72
2021/11/29 05:35:22;;;;;;;7.45;0.70;;;;;;;;;;5074252;28;20048;-70
2021/11/29 05:37:48;;;;;;;2.47;0.40;;;;;;;;;;5074421;28;20024;-71
2021/11/29 05:40:15;;;;;;;4.45;0.88;;;;;;;;;;5074160;28;20159;-70
2021/11/29 05:42:41;;;;;;;3.63;0.70;;;;;;;;;;5056472;28;20047;-70
2021/11/29 05:45:11;;;;;;;2.70;0.70;;;;;;;;;;5075048;28;20035;-70
2021/11/29 05:47:37;;;;;;;6.75;0.70;;;;;;;;;;5056405;28;20021;-71
2021/11/29 05:50:04;;;;;;;2.30;0.60;;;;;;;;;;5056239;28;20036;-71
2021/11/29 05:52:30;;;;;;;4.72;0.60;;;;;;;;;;5073683;28;20391;-70
2021/11/29 05:54:56;;;;;;;4.07;0.80;;;;;;;;;;5073864;28;20472;-71
2021/11/29 05:57:22;;;;;;;2.00;0.60;;;;;;;;;;5074202;28;20552;-71
2021/11/29 05:59:48;;;;;;;3.67;0.70;;;;;;;;;;5073981;28;20372;-71
2021/11/29 06:02:14;;;;;;;2.78;0.50;;;;;;;;;;5074193;28;20029;-71
2021/11/29 06:04:40;;;;;;;3.05;0.70;;;;;;;;;;5073742;28;20422;-70
2021/11/29 06:07:06;;;;;;;2.95;0.60;;;;;;;;;;5074265;28;20043;-70
2021/11/29 06:09:32;;;;;;;2.25;0.50;;;;;;;;;;5073679;28;20032;-71
2021/11/29 06:11:58;;;;;;;12.70;0.50;;;;;;;;;;5055736;28;20029;-71
2021/11/29 06:14:34;;;;;;;1.75;0.52;;;;;;;;;;5073508;28;20369;-70
2021/11/29 06:17:00;;;;;;;2.58;0.50;;;;;;;;;;5073736;28;20052;-70
2021/11/29 06:19:26;;;;;;;0.95;0.57;;;;;;;;;;5073726;28;20052;-70
2021/11/29 06:21:52;;;;;;;2.45;0.60;;;;;;;;;;5073643;28;20031;-69
2021/11/29 06:24:18;;;;;;;2.38;0.60;;;;;;;;;;5055755;28;20016;-71
2021/11/29 06:26:44;;;;;;;1.98;0.70;;;;;;;;;;5058693;28;20109;-70
2021/11/29 06:29:10;;;;;;;4.78;0.60;;;;;;;;;;5053300;28;20029;-70
2021/11/29 06:31:36;;;;;;;8.98;0.73;;;;;;;;;;5035626;28;20025;-71
2021/11/29 06:34:02;;;;;;;4.20;0.70;;;;;;;;;;5053422;28;20130;-72
2021/11/29 06:36:35;;;;;;;6.20;0.80;;;;;;;;;;5053627;28;20021;-71
2021/11/29 06:39:01;;;;;;;4.10;0.82;;;;;;;;;;5035933;28;20029;-71
2021/11/29 06:41:27;;;;;;;6.18;0.80;;;;;;;;;;5054036;28;20017;-72
2021/11/29 06:43:53;;;;;;;4.65;0.80;;;;;;;;;;5053542;28;20021;-70
2021/11/29 06:46:19;;;;;;;7.78;0.80;;;;;;;;;;5035706;28;20032;-69
2021/11/29 06:48:45;;;;;;;2.92;0.73;;;;;;;;;;5053712;28;20021;-72
2021/11/29 06:51:11;;;;;;;2.78;0.85;;;;;;;;;;5035555;28;20025;-71
2021/11/29 06:53:40;;;;;;;2.70;0.82;;;;;;;;;;5053358;28;20039;-71
2021/11/29 06:56:06;;;;;;;3.10;1.02;;;;;;;;;;5053362;28;20481;-72
2021/11/29 06:58:32;;;;;;;1.95;0.70;;;;;;;;;;5052947;28;20055;-71
2021/11/29 07:00:58;;;;;;;2.67;0.93;;;;;;;;;;5067877;28;20463;-71
2021/11/29 07:03:24;;;;;;;3.25;0.70;;;;;;;;;;5056162;28;20025;-71
2021/11/29 07:05:51;;;;;;;2.35;0.90;;;;;;;;;;5077138;28;20028;-71
2021/11/29 07:08:18;;;;;;;25.17;1.20;;;;;;;;;;5078325;28;20074;-66
2021/11/29 07:10:44;;;;;;;19.98;1.52;;;;;;;;;;5077604;28;20108;-73
2021/11/29 07:13:10;;;;;;;16.63;1.75;;;;;;;;;;5059671;28;20033;-69
2021/11/29 07:15:37;;;;;;;15.80;1.40;;;;;;;;;;5059042;28;20029;-67
2021/11/29 07:18:03;;;;;;;15.88;1.42;;;;;;;;;;5076869;28;20035;-67
2021/11/29 07:20:29;;;;;;;13.30;1.23;;;;;;;;;;5073574;28;20392;-68
2021/11/29 07:22:55;;;;;;;10.20;1.10;;;;;;;;;;5071235;28;20460;-68
2021/11/29 07:25:22;;;;;;;13.38;1.30;;;;;;;;;;5076724;28;20031;-69
2021/11/29 07:27:48;;;;;;;9.52;1.17;;;;;;;;;;5065259;28;20021;-69
2021/11/29 07:30:15;;;;;;;7.38;1.00;;;;;;;;;;5074765;28;20099;-69
2021/11/29 07:32:42;;;;;;;5.30;1.00;;;;;;;;;;5075377;28;20102;-68
2021/11/29 07:35:09;;;;;;;3.35;1.10;;;;;;;;;;5052067;28;20021;-68
2021/11/29 07:37:35;;;;;;;3.40;1.15;;;;;;;;;;5071433;28;20025;-67
2021/11/29 07:40:03;;;;;;;3.25;0.95;;;;;;;;;;5071084;28;20071;-68
2021/11/29 07:42:29;;;;;;;3.30;0.90;;;;;;;;;;5072157;28;20485;-68
2021/11/29 07:44:55;;;;;;;4.85;1.17;;;;;;;;;;5064233;28;20049;-72
2021/11/29 07:47:21;;;;;;;9.82;1.33;;;;;;;;;;5048451;28;20020;-68
2021/11/29 07:49:47;;;;;;;10.02;1.48;;;;;;;;;;5076272;28;20027;-69
2021/11/29 07:52:14;;;;;;;22.85;1.08;;;;;;;;;;5075994;28;20100;-71
2021/11/29 07:54:41;;;;;;;6.15;1.35;;;;;;;;;;5072835;28;20024;-68
2021/11/29 07:57:07;;;;;;;9.50;1.20;;;;;;;;;;5091508;28;20104;-68
2021/11/29 07:59:33;;;;;;;14.13;0.98;;;;;;;;;;5069933;28;20036;-71
2021/11/29 08:01:59;;;;;;;6.25;1.20;;;;;;;;;;5076656;28;20165;-70
2021/11/29 08:04:25;;;;;;;9.50;1.20;;;;;;;;;;5076002;28;20013;-72
2021/11/29 08:06:51;;;;;;;5.45;0.90;;;;;;;;;;5076224;28;20029;-71
2021/11/29 08:09:17;;;;;;;22.83;1.17;;;;;;;;;;5076449;28;20024;-80
2021/11/29 08:11:43;;;;;;;14.77;1.50;;;;;;;;;;5078549;28;20100;-77
2021/11/29 08:14:09;;;;;;;25.58;1.73;;;;;;;;;;5061632;28;20048;-84
2021/11/29 08:16:35;;;;;;;25.17;1.15;;;;;;;;;;5080298;28;20051;-86
2021/11/29 08:19:01;;;;;;;12.25;1.63;;;;;;;;;;5080075;28;20021;-83
2021/11/29 08:21:27;;;;;;;9.77;1.13;;;;;;;;;;5080022;28;20024;-78
2021/11/29 08:23:53;;;;;;;9.98;1.00;;;;;;;;;;5080204;28;20027;-79
2021/11/29 08:26:19;;;;;;;5.45;1.00;;;;;;;;;;5079874;28;20037;-79
2021/11/29 08:28:45;;;;;;;18.63;1.30;;;;;;;;;;5061740;28;20135;-79
2021/11/29 08:31:11;;;;;;;8.68;1.08;;;;;;;;;;5061886;28;20031;-79
2021/11/29 08:33:37;;;;;;;5.75;1.10;;;;;;;;;;5079558;28;20047;-79
2021/11/29 08:36:03;;;;;;;11.43;1.05;;;;;;;;;;5061711;28;20017;-79
2021/11/29 08:38:29;;;;;;;4.07;1.08;;;;;;;;;;5079400;28;20033;-78
2021/11/29 08:40:56;;;;;;;5.18;1.20;;;;;;;;;;5079490;28;20051;-79
2021/11/29 08:43:22;;;;;;;5.57;1.23;;;;;;;;;;5079375;28;20082;-79
2021/11/29 08:45:49;;;;;;;5.85;1.30;;;;;;;;;;5079617;28;20052;-79
2021/11/29 08:48:15;;;;;;;3.72;1.10;;;;;;;;;;5079476;28;20115;-79
2021/11/29 08:50:43;;;;;;;5.38;1.15;;;;;;;;;;5079181;28;20421;-78
2021/11/29 08:53:11;;;;;;;5.30;1.00;;;;;;;;;;5078791;28;20040;-78
2021/11/29 08:55:37;;;;;;;6.20;1.30;;;;;;;;;;5073188;28;20013;-78
2021/11/29 08:58:04;;;;;;;3.03;0.95;;;;;;;;;;5079137;28;20028;-78
2021/11/29 09:00:31;;;;;;;7.97;1.08;;;;;;;;;;5078800;28;20415;-78
2021/11/29 09:02:59;;;;;;;11.10;1.60;;;;;;;;;;5078765;28;20032;-79
2021/11/29 09:05:25;;;;;;;4.93;1.20;;;;;;;;;;5078769;28;20020;-78
2021/11/29 09:07:51;;;;;;;5.32;1.30;;;;;;;;;;5078554;28;20025;-78
2021/11/29 09:10:17;;;;;;;5.47;1.20;;;;;;;;;;5078835;28;20032;-78
2021/11/29 09:12:43;;;;;;;4.32;0.93;;;;;;;;;;5078582;28;20039;-78
2021/11/29 09:15:11;;;;;;;4.93;1.10;;;;;;;;;;5060296;28;20048;-79
2021/11/29 09:17:37;;;;;;;4.18;1.10;;;;;;;;;;5078329;28;20379;-78
2021/11/29 09:20:08;;;;;;;2.20;1.00;;;;;;;;;;5060478;28;20450;-78
2021/11/29 09:22:34;;;;;;;7.43;1.00;;;;;;;;;;5078842;28;20046;-78
2021/11/29 09:25:00;;;;;;;7.65;1.38;;;;;;;;;;5078518;28;20058;-79
2021/11/29 09:27:29;;;;;;;5.47;1.08;;;;;;;;;;5077406;28;20484;-79
2021/11/29 09:29:55;;;;;;;2.50;1.10;;;;;;;;;;5078383;28;20523;-79
2021/11/29 09:32:21;;;;;;;2.90;0.90;;;;;;;;;;5078139;28;20028;-79
2021/11/29 09:34:48;;;;;;;3.88;1.20;;;;;;;;;;5078517;28;20035;-83
2021/11/29 09:37:14;;;;;;;2.63;0.98;;;;;;;;;;5060241;28;20023;-79
2021/11/29 09:39:40;;;;;;;4.50;1.20;;;;;;;;;;5077951;28;20028;-79
2021/11/29 09:42:07;;;;;;;2.55;1.13;;;;;;;;;;5078034;28;20388;-79
2021/11/29 09:44:33;;;;;;;4.93;2.17;;;;;;;;;;5078253;28;20024;-78
2021/11/29 09:46:59;;;;;;;3.75;1.20;;;;;;;;;;5077794;28;20028;-79
2021/11/29 09:49:29;;;;;;;3.33;1.00;;;;;;;;;;5077875;28;20070;-79
2021/11/29 09:51:57;;;;;;;3.38;1.20;;;;;;;;;;5077722;28;20393;-79
2021/11/29 09:54:23;;;;;;;2.72;0.90;;;;;;;;;;5078193;28;20044;-82
2021/11/29 09:56:53;;;;;;;3.78;1.10;;;;;;;;;;5059426;28;20051;-78
2021/11/29 09:59:23;;;;;;;3.83;1.02;;;;;;;;;;5077578;28;20025;-80
2021/11/29 10:01:49;;;;;;;3.50;1.00;;;;;;;;;;5077969;28;20031;-81
2021/11/29 10:04:15;;;;;;;4.05;1.10;;;;;;;;;;5078345;28;20050;-79
2021/11/29 10:06:42;;;;;;;3.70;1.20;;;;;;;;;;5077532;28;20024;-79
2021/11/29 10:09:26;;;;;;;5.10;1.13;;;;;;;;;;5077449;28;20051;-82
2021/11/29 10:11:52;;;;;;;3.15;1.13;;;;;;;;;;5077007;28;20078;-78
2021/11/29 10:14:19;;;;;;;3.58;1.20;;;;;;;;;;5058997;28;20143;-76
2021/11/29 10:16:46;;;;;;;4.88;1.48;;;;;;;;;;5077202;28;20026;-78
2021/11/29 10:19:21;;;;;;;7.40;1.30;;;;;;;;;;5059588;28;20115;-81
2021/11/29 10:21:48;;;;;;;4.07;1.20;;;;;;;;;;5059925;28;20410;-81
2021/11/29 10:24:16;;;;;;;3.53;1.10;;;;;;;;;;5059536;28;20078;-84
2021/11/29 10:26:47;;;;;;;2.03;1.05;;;;;;;;;;5077835;28;20420;-81
2021/11/29 10:29:14;;;;;;;4.38;1.10;;;;;;;;;;5059500;28;20032;-78
2021/11/29 10:31:44;;;;;;;3.35;1.55;;;;;;;;;;5077880;28;20114;-79
2021/11/29 10:34:18;;;;;;;3.80;1.20;;;;;;;;;;5077516;28;20032;-79
2021/11/29 10:36:48;;;;;;;3.70;0.90;;;;;;;;;;5059651;28;20031;-79
2021/11/29 10:39:20;;;;;;;1.98;0.90;;;;;;;;;;5077307;28;20111;-79
2021/11/29 10:41:48;;;;;;;5.68;1.25;;;;;;;;;;5077348;28;20479;-79
2021/11/29 10:44:17;;;;;;;2.60;1.00;;;;;;;;;;5059477;28;20039;-79
2021/11/29 10:46:44;;;;;;;3.08;1.05;;;;;;;;;;5077561;28;20115;-78
2021/11/29 10:49:13;;;;;;;2.45;0.90;;;;;;;;;;5076998;28;20029;-77
2021/11/29 10:51:39;;;;;;;1.27;0.65;;;;;;;;;;5077018;28;20123;-78
2021/11/29 10:54:06;;;;;;;2.88;0.98;;;;;;;;;;5076920;28;20369;-77
2021/11/29 10:56:35;;;;;;;3.45;1.00;;;;;;;;;;5097104;28;20021;-78
2021/11/29 10:59:03;;;;;;;2.22;0.80;;;;;;;;;;5097499;28;20028;-79
2021/11/29 11:01:37;;;;;;;1.73;0.82;;;;;;;;;;5097396;28;20030;-79
2021/11/29 11:04:04;;;;;;;1.42;0.82;;;;;;;;;;5097485;28;20365;-80
2021/11/29 11:06:46;;;;;;;1.55;0.88;;;;;;;;;;5091064;28;20452;-79
2021/11/29 11:09:32;;;;;;;1.33;0.70;;;;;;;;;;5077386;28;20032;-79
2021/11/29 11:11:59;;;;;;;1.58;0.75;;;;;;;;;;5077432;28;20036;-79
2021/11/29 11:14:30;;;;;;;1.95;0.85;;;;;;;;;;5077377;28;20546;-79
2021/11/29 11:16:58;;;;;;;1.58;0.80;;;;;;;;;;5077111;28;20550;-80
2021/11/29 11:19:44;;;;;;;1.63;0.70;;;;;;;;;;5059320;28;20024;-80
2021/11/29 11:22:11;;;;;;;1.90;0.93;;;;;;;;;;5077305;28;20062;-81
2021/11/29 11:24:38;;;;;;;2.63;0.93;;;;;;;;;;5077660;28;20032;-81
2021/11/29 11:27:12;;;;;;;2.45;0.63;;;;;;;;;;5059201;28;20066;-81
2021/11/29 11:29:44;;;;;;;1.35;0.70;;;;;;;;;;5077135;28;20029;-80
2021/11/29 11:32:15;;;;;;;2.10;0.75;;;;;;;;;;5059320;28;20052;-77
2021/11/29 11:34:43;;;;;;;2.83;0.80;;;;;;;;;;5077020;28;20078;-77
2021/11/29 11:37:09;;;;;;;2.38;0.80;;;;;;;;;;5076315;28;20384;-77
2021/11/29 11:39:35;;;;;;;2.15;0.68;;;;;;;;;;5058609;28;20484;-77
2021/11/29 11:42:02;;;;;;;1.63;0.70;;;;;;;;;;5076165;28;20017;-77
2021/11/29 11:44:28;;;;;;;1.40;0.80;;;;;;;;;;5076608;28;20048;-77
2021/11/29 11:46:57;;;;;;;2.45;0.98;;;;;;;;;;5076503;28;20040;-77
2021/11/29 11:49:23;;;;;;;2.70;1.27;;;;;;;;;;5077323;28;20051;-77
2021/11/29 11:51:49;;;;;;;5.18;1.30;;;;;;;;;;5080132;28;20031;-77
2021/11/29 11:54:16;;;;;;;3.28;1.23;;;;;;;;;;5070375;28;20033;-76
2021/11/29 11:56:42;;;;;;;4.43;1.40;;;;;;;;;;5095516;28;20024;-76
2021/11/29 11:59:13;;;;;;;3.95;1.40;;;;;;;;;;5100424;28;20443;-77
2021/11/29 12:01:43;;;;;;;6.22;1.55;;;;;;;;;;5100482;28;20058;-78
2021/11/29 12:04:15;;;;;;;3.08;1.65;;;;;;;;;;5100572;28;20012;-76
2021/11/29 12:06:44;;;;;;;6.03;1.52;;;;;;;;;;5082024;28;20115;-77
2021/11/29 12:09:12;;;;;;;5.05;1.50;;;;;;;;;;5100025;28;20075;-76
2021/11/29 12:11:38;;;;;;;3.72;1.80;;;;;;;;;;5099947;28;20111;-76
2021/11/29 12:14:27;;;;;;;3.67;1.58;;;;;;;;;;5099396;28;20048;-76
2021/11/29 12:16:56;;;;;;;5.10;1.65;;;;;;;;;;5099573;28;20016;-76
2021/11/29 12:19:26;;;;;;;4.00;1.63;;;;;;;;;;5081427;28;20129;-76
2021/11/29 12:21:53;;;;;;;4.78;1.42;;;;;;;;;;5099537;28;20357;-75
2021/11/29 12:24:22;;;;;;;3.83;1.60;;;;;;;;;;5098957;28;20024;-77
2021/11/29 12:26:48;;;;;;;3.30;1.60;;;;;;;;;;5099063;28;20028;-77
2021/11/29 12:29:21;;;;;;;2.90;1.35;;;;;;;;;;5099624;28;20028;-78
2021/11/29 12:32:08;;;;;;;3.63;1.50;;;;;;;;;;5081336;28;20555;-77
2021/11/29 12:34:50;;;;;;;3.53;1.40;;;;;;;;;;5089380;28;20028;-77
2021/11/29 12:37:19;;;;;;;4.13;1.60;;;;;;;;;;5099951;28;20027;-77
2021/11/29 12:39:45;;;;;;;3.80;1.35;;;;;;;;;;5099474;28;20028;-77
2021/11/29 12:42:20;;;;;;;1.85;1.20;;;;;;;;;;5099547;28;20028;-76
2021/11/29 12:44:50;;;;;;;4.22;1.20;;;;;;;;;;5099490;28;20024;-77
2021/11/29 12:47:18;;;;;;;4.03;1.63;;;;;;;;;;5099083;28;20479;-75
2021/11/29 12:49:44;;;;;;;3.80;1.40;;;;;;;;;;5099091;28;20459;-77
2021/11/29 12:52:29;;;;;;;2.05;1.20;;;;;;;;;;5099181;28;20511;-77
2021/11/29 12:54:55;;;;;;;2.67;1.17;;;;;;;;;;5071610;28;20106;-77
2021/11/29 12:57:24;;;;;;;3.63;1.42;;;;;;;;;;5078538;28;20364;-76
2021/11/29 12:59:52;;;;;;;2.97;1.08;;;;;;;;;;5078483;28;20020;-77
2021/11/29 13:02:37;;;;;;;2.65;1.27;;;;;;;;;;5059439;28;20425;-80
2021/11/29 13:05:26;;;;;;;3.10;1.13;;;;;;;;;;5078703;28;20021;-76
2021/11/29 13:07:58;;;;;;;3.10;1.20;;;;;;;;;;5078664;28;20525;-77
2021/11/29 13:10:43;;;;;;;2.03;1.07;;;;;;;;;;5078888;28;20086;-76
2021/11/29 13:13:27;;;;;;;1.63;0.90;;;;;;;;;;5060022;28;20335;-78
2021/11/29 13:15:55;;;;;;;2.50;0.80;;;;;;;;;;5078467;28;20024;-78
2021/11/29 13:18:39;;;;;;;1.38;0.95;;;;;;;;;;5078456;28;20032;-77
2021/11/29 13:21:05;;;;;;;1.30;0.98;;;;;;;;;;5078523;28;20030;-77
2021/11/29 13:23:31;;;;;;;1.60;0.80;;;;;;;;;;5078559;28;20426;-78
2021/11/29 13:26:02;;;;;;;2.13;0.77;;;;;;;;;;5060376;28;20464;-77
2021/11/29 13:28:28;;;;;;;2.45;1.10;;;;;;;;;;5078299;28;20016;-78
2021/11/29 13:30:54;;;;;;;3.22;0.80;;;;;;;;;;5078172;28;20032;-78
2021/11/29 13:33:20;;;;;;;1.55;0.77;;;;;;;;;;5060555;28;20036;-80
2021/11/29 13:35:46;;;;;;;2.88;0.93;;;;;;;;;;5078480;28;20016;-80
2021/11/29 13:38:12;;;;;;;2.28;0.80;;;;;;;;;;5078559;28;20029;-79
2021/11/29 13:40:38;;;;;;;1.95;0.80;;;;;;;;;;5093599;28;20036;-78
2021/11/29 13:43:04;;;;;;;1.73;0.85;;;;;;;;;;5098855;28;20053;-80
2021/11/29 13:45:32;;;;;;;4.15;1.40;;;;;;;;;;5098284;28;20020;-79
2021/11/29 13:48:07;;;;;;;5.03;2.28;;;;;;;;;;5091840;28;20035;-77
2021/11/29 13:50:35;;;;;;;4.55;1.88;;;;;;;;;;5060070;28;20021;-79
2021/11/29 13:53:04;;;;;;;9.05;3.88;;;;;;;;;;5080930;28;20035;-80
2021/11/29 13:55:31;;;;;;;11.43;5.03;;;;;;;;;;5070966;28;20031;-81
2021/11/29 13:58:05;;;;;;;18.23;7.15;;;;;;;;;;5087056;28;20039;-72
2021/11/29 14:00:34;;;;;;;17.05;8.52;;;;;;;;;;5085323;28;20039;-71
2021/11/29 14:03:05;;;;;;;20.48;9.75;;;;;;;;;;5063797;28;20020;-74
2021/11/29 14:05:32;;;;;;;28.80;11.93;;;;;;;;;;5088045;28;20036;-68
2021/11/29 14:08:00;;;;;;;27.75;12.20;;;;;;;;;;5083393;28;20051;-68
2021/11/29 14:10:38;;;;;;;26.73;11.60;;;;;;;;;;5085263;28;20087;-72
2021/11/29 14:13:04;;;;;;;27.88;12.32;;;;;;;;;;5063703;28;20547;-74
2021/11/29 14:15:47;;;;;;;31.48;12.98;;;;;;;;;;5056131;28;20045;-67
2021/11/29 14:18:13;;;;;;;;;;;;;;;;;;5069741;28;20341;-67
2021/11/29 14:20:39;;;;;;;26.20;11.50;;;;;;;;;;5073754;28;20340;-69
2021/11/29 14:23:05;;;;;;;23.65;10.95;;;;;;;;;;5074305;28;20055;-71
2021/11/29 14:25:31;;;;;;;24.92;10.70;;;;;;;;;;5056157;28;20032;-69
2021/11/29 14:27:58;;;;;;;21.55;10.55;;;;;;;;;;5055689;28;20016;-73
2021/11/29 14:30:26;;;;;;;30.60;10.85;;;;;;;;;;5067438;28;20073;-68
2021/11/29 14:32:58;;;;;;;23.95;10.63;;;;;;;;;;5073296;28;20058;-69
2021/11/29 14:35:31;;;;;;;25.80;10.60;;;;;;;;;;5073641;28;20547;-70
2021/11/29 14:38:00;;;;;;;25.73;10.35;;;;;;;;;;5074144;28;20046;-70
2021/11/29 14:40:30;;;;;;;21.90;9.80;;;;;;;;;;5055976;28;20486;-71
2021/11/29 14:42:56;;;;;;;21.13;9.13;;;;;;;;;;5056131;28;20468;-70